IGO521C VEIM-VECC
Flight info
| Callsign | IGO521C |
|---|---|
| Flight time | N/A |
| Altitude | 32000 |
| Route | IIM4C IIM W54 AAT B593 NOKAT NOKAT2G |
| Aircraft | A320/M-SDE3FGHIRWY/LB1 |
Departure
| Time | N/A |
|---|---|
| Airport | Bir Tikendrajit International Airport (VEIM) |
Arrival
| Time | 2026-04-26 12:04 |
|---|---|
| Airport | Netaji Subhash Chandra Bose International Airport (VECC) |
| Time | Latitude | Longitude | Altitude | Speed | Heading |
|---|---|---|---|---|---|
| 2026-04-26 11:40 | 23.04712 | 89.82400 | 31725 ft | 402 kts | 256° |
| 2026-04-26 11:40 | 23.03880 | 89.79503 | 31725 ft | 402 kts | 256° |
| 2026-04-26 11:40 | 23.02221 | 89.73713 | 31727 ft | 402 kts | 256° |
| 2026-04-26 11:42 | 22.95595 | 89.50793 | 28587 ft | 387 kts | 256° |
| 2026-04-26 11:43 | 22.94792 | 89.48021 | 28069 ft | 384 kts | 256° |
| 2026-04-26 11:43 | 22.93995 | 89.45268 | 27557 ft | 380 kts | 256° |
| 2026-04-26 11:43 | 22.93204 | 89.42543 | 27050 ft | 378 kts | 256° |
| 2026-04-26 11:43 | 22.92417 | 89.39833 | 26542 ft | 375 kts | 255° |
| 2026-04-26 11:44 | 22.91632 | 89.37141 | 26037 ft | 374 kts | 255° |
| 2026-04-26 11:44 | 22.90850 | 89.34456 | 25534 ft | 373 kts | 255° |
| 2026-04-26 11:44 | 22.90072 | 89.31781 | 25032 ft | 372 kts | 255° |
| 2026-04-26 11:44 | 22.89296 | 89.29105 | 24533 ft | 371 kts | 255° |
| 2026-04-26 11:45 | 22.88521 | 89.26433 | 24044 ft | 371 kts | 255° |
| 2026-04-26 11:45 | 22.87745 | 89.23762 | 23546 ft | 372 kts | 255° |
| 2026-04-26 11:45 | 22.86967 | 89.21089 | 23034 ft | 371 kts | 255° |
| 2026-04-26 11:45 | 22.86189 | 89.18430 | 22546 ft | 369 kts | 255° |
| 2026-04-26 11:46 | 22.85416 | 89.15792 | 22093 ft | 365 kts | 255° |
| 2026-04-26 11:46 | 22.84650 | 89.13178 | 21654 ft | 362 kts | 255° |
| 2026-04-26 11:46 | 22.83892 | 89.10591 | 21223 ft | 358 kts | 256° |
| 2026-04-26 11:46 | 22.83142 | 89.08025 | 20794 ft | 355 kts | 256° |
| 2026-04-26 11:47 | 22.82402 | 89.05488 | 20368 ft | 352 kts | 256° |
| 2026-04-26 11:47 | 22.81665 | 89.02968 | 19939 ft | 350 kts | 256° |
| 2026-04-26 11:47 | 22.80935 | 89.00477 | 19666 ft | 343 kts | 256° |
| 2026-04-26 11:47 | 22.80218 | 88.98039 | 19384 ft | 336 kts | 256° |
| 2026-04-26 11:48 | 22.79463 | 88.95651 | 19151 ft | 335 kts | 250° |
| 2026-04-26 11:48 | 22.78272 | 88.93465 | 18926 ft | 341 kts | 236° |
| 2026-04-26 11:48 | 22.76624 | 88.91598 | 18662 ft | 345 kts | 228° |
| 2026-04-26 11:48 | 22.74891 | 88.89799 | 18219 ft | 345 kts | 229° |
| 2026-04-26 11:49 | 22.73157 | 88.87991 | 17698 ft | 346 kts | 229° |
| 2026-04-26 11:49 | 22.71430 | 88.86182 | 17267 ft | 344 kts | 229° |
| 2026-04-26 11:49 | 22.69711 | 88.84382 | 16745 ft | 344 kts | 228° |
| 2026-04-26 11:49 | 22.68005 | 88.82597 | 16406 ft | 339 kts | 228° |
| 2026-04-26 11:50 | 22.66310 | 88.80829 | 16008 ft | 337 kts | 228° |
| 2026-04-26 11:50 | 22.64624 | 88.79073 | 15610 ft | 336 kts | 228° |
| 2026-04-26 11:50 | 22.62944 | 88.77326 | 15206 ft | 334 kts | 228° |
| 2026-04-26 11:50 | 22.61296 | 88.75613 | 14887 ft | 323 kts | 228° |
| 2026-04-26 11:51 | 22.59695 | 88.73947 | 14349 ft | 316 kts | 229° |
| 2026-04-26 11:51 | 22.58134 | 88.72285 | 13775 ft | 313 kts | 229° |
| 2026-04-26 11:51 | 22.56603 | 88.70632 | 13161 ft | 309 kts | 229° |
| 2026-04-26 11:51 | 22.55092 | 88.68990 | 12554 ft | 305 kts | 230° |
| 2026-04-26 11:52 | 22.53663 | 88.67342 | 12104 ft | 296 kts | 231° |
| 2026-04-26 11:52 | 22.52764 | 88.66255 | 11832 ft | 290 kts | 232° |
| 2026-04-26 11:52 | 22.51021 | 88.64100 | 11290 ft | 279 kts | 232° |
| 2026-04-26 11:52 | 22.49778 | 88.62558 | 10913 ft | 273 kts | 232° |
| 2026-04-26 11:53 | 22.48539 | 88.61027 | 10520 ft | 268 kts | 232° |
| 2026-04-26 11:53 | 22.47317 | 88.59528 | 10131 ft | 263 kts | 232° |
| 2026-04-26 11:53 | 22.46117 | 88.58063 | 9769 ft | 258 kts | 231° |
| 2026-04-26 11:54 | 22.43783 | 88.55218 | 9024 ft | 248 kts | 231° |
| 2026-04-26 11:54 | 22.42532 | 88.53962 | 8675 ft | 245 kts | 218° |
| 2026-04-26 11:54 | 22.41041 | 88.53107 | 8330 ft | 242 kts | 203° |
| 2026-04-26 11:54 | 22.39417 | 88.52679 | 7989 ft | 239 kts | 194° |
| 2026-04-26 11:55 | 22.37798 | 88.52371 | 7649 ft | 233 kts | 194° |
| 2026-04-26 11:55 | 22.36216 | 88.52067 | 7319 ft | 228 kts | 194° |
| 2026-04-26 11:55 | 22.34687 | 88.51770 | 7036 ft | 220 kts | 194° |
| 2026-04-26 11:55 | 22.33209 | 88.51482 | 6920 ft | 212 kts | 194° |
| 2026-04-26 11:56 | 22.31836 | 88.51063 | 6695 ft | 199 kts | 217° |
| 2026-04-26 11:56 | 22.31074 | 88.49931 | 6478 ft | 185 kts | 258° |
| 2026-04-26 11:56 | 22.31253 | 88.48603 | 6262 ft | 182 kts | 298° |
| 2026-04-26 11:56 | 22.32235 | 88.47774 | 6036 ft | 187 kts | 341° |
| 2026-04-26 11:57 | 22.33536 | 88.47571 | 5805 ft | 189 kts | 344° |
| 2026-04-26 11:57 | 22.34803 | 88.47275 | 5578 ft | 184 kts | 341° |
| 2026-04-26 11:57 | 22.36032 | 88.46939 | 5357 ft | 181 kts | 339° |
| 2026-04-26 11:57 | 22.37249 | 88.46601 | 5140 ft | 180 kts | 341° |
| 2026-04-26 11:58 | 22.38458 | 88.46272 | 4924 ft | 179 kts | 342° |
| 2026-04-26 11:58 | 22.39665 | 88.45951 | 4711 ft | 179 kts | 341° |
| 2026-04-26 11:58 | 22.40871 | 88.45634 | 4498 ft | 179 kts | 342° |
| 2026-04-26 11:58 | 22.42081 | 88.45320 | 4271 ft | 180 kts | 341° |
| 2026-04-26 11:59 | 22.43307 | 88.45002 | 4056 ft | 182 kts | 341° |
| 2026-04-26 11:59 | 22.44536 | 88.44686 | 3832 ft | 181 kts | 344° |
| 2026-04-26 11:59 | 22.45351 | 88.44477 | 3688 ft | 183 kts | 343° |
| 2026-04-26 11:59 | 22.45858 | 88.44347 | 3599 ft | 184 kts | 344° |
| 2026-04-26 12:00 | 22.47113 | 88.44029 | 3372 ft | 184 kts | 345° |
| 2026-04-26 12:00 | 22.48353 | 88.43714 | 3158 ft | 183 kts | 345° |
| 2026-04-26 12:00 | 22.49589 | 88.43400 | 3035 ft | 183 kts | 345° |
| 2026-04-26 12:00 | 22.50834 | 88.43123 | 2993 ft | 184 kts | 357° |
| 2026-04-26 12:01 | 22.52109 | 88.43215 | 3022 ft | 183 kts | 6° |
| 2026-04-26 12:01 | 22.53377 | 88.43363 | 3037 ft | 183 kts | 7° |
| 2026-04-26 12:01 | 22.54642 | 88.43511 | 3014 ft | 182 kts | 7° |
| 2026-04-26 12:01 | 22.56323 | 88.43713 | 2853 ft | 187 kts | 8° |
| 2026-04-26 12:02 | 22.57195 | 88.43837 | 2523 ft | 187 kts | 10° |
| 2026-04-26 12:02 | 22.58471 | 88.44053 | 2047 ft | 185 kts | 9° |
| 2026-04-26 12:02 | 22.59729 | 88.44262 | 1613 ft | 180 kts | 8° |
| 2026-04-26 12:02 | 22.60975 | 88.44458 | 981 ft | 184 kts | 6° |
| 2026-04-26 12:03 | 22.62234 | 88.44404 | 528 ft | 184 kts | 4° |
| 2026-04-26 12:03 | 22.63478 | 88.44543 | 255 ft | 177 kts | 12° |
| 2026-04-26 12:03 | 22.64662 | 88.44683 | 48 ft | 166 kts | 8° |
| 2026-04-26 12:03 | 22.65693 | 88.44803 | 28 ft | 126 kts | 6° |
| 2026-04-26 12:04 | 22.66382 | 88.44886 | 24 ft | 66 kts | 6° |
| 2026-04-26 12:04 | 22.66622 | 88.44877 | 23 ft | 20 kts | 298° |
| 2026-04-26 12:04 | 22.66566 | 88.44763 | 24 ft | 19 kts | 231° |
| 2026-04-26 12:04 | 22.66450 | 88.44684 | 23 ft | 21 kts | 191° |
| 2026-04-26 12:05 | 22.66278 | 88.44664 | 24 ft | 30 kts | 186° |
| 2026-04-26 12:05 | 22.66119 | 88.44647 | 26 ft | 22 kts | 185° |
| 2026-04-26 12:05 | 22.65975 | 88.44585 | 27 ft | 23 kts | 211° |
| 2026-04-26 12:05 | 22.65830 | 88.44493 | 29 ft | 25 kts | 210° |
| 2026-04-26 12:06 | 22.65675 | 88.44398 | 25 ft | 15 kts | 209° |
| 2026-04-26 12:06 | 22.65661 | 88.44367 | 26 ft | 0 kts | 277° |